Time;durP1;ratioP1;P1;durP2;ratioP2;P2;SDS_P1;SDS_P2;PMS_P1;PMS_P2;Temp;Humidity;BMP_temperature;BMP_pressure;BME280_temperature;BME280_humidity;BME280_pressure;Samples;Min_cycle;Max_cycle;Signal;HPM_P1;HPM_P2
2022/05/07 00:01:30;;;;;;;7.40;5.13;;;;;;;;;;4402496;28;20051;-71
2022/05/07 00:03:41;;;;;;;7.28;5.28;;;;;;;;;;4393317;29;20040;-71
2022/05/07 00:05:51;;;;;;;7.07;4.83;;;;;;;;;;4400873;28;20420;-72
2022/05/07 00:08:03;;;;;;;7.77;5.33;;;;;;;;;;4402239;29;20039;-72
2022/05/07 00:10:14;;;;;;;8.07;5.45;;;;;;;;;;4400606;29;20580;-71
2022/05/07 00:12:25;;;;;;;8.00;5.38;;;;;;;;;;4415289;28;20038;-71
2022/05/07 00:14:35;;;;;;;7.07;5.00;;;;;;;;;;4401057;29;20060;-72
2022/05/07 00:19:15;;;;;;;7.68;4.65;;;;;;;;;;4401767;29;20964;-72
2022/05/07 00:21:25;;;;;;;6.87;4.87;;;;;;;;;;4400664;29;20036;-71
2022/05/07 00:23:37;;;;;;;6.63;4.73;;;;;;;;;;4401541;28;20414;-71
2022/05/07 00:25:48;;;;;;;7.05;5.00;;;;;;;;;;4400364;29;20032;-71
2022/05/07 00:27:58;;;;;;;7.33;4.90;;;;;;;;;;4400836;29;20486;-71
2022/05/07 00:30:09;;;;;;;7.57;4.67;;;;;;;;;;4400325;29;20039;-71
2022/05/07 00:32:19;;;;;;;6.97;5.00;;;;;;;;;;4390320;29;20032;-72
2022/05/07 00:34:30;;;;;;;6.87;4.70;;;;;;;;;;4401410;28;20047;-71
2022/05/07 00:36:40;;;;;;;6.40;4.70;;;;;;;;;;4392942;29;20193;-71
2022/05/07 00:38:52;;;;;;;7.23;4.87;;;;;;;;;;4388841;29;20029;-72
2022/05/07 00:41:02;;;;;;;6.82;4.63;;;;;;;;;;4404134;29;20048;-72
2022/05/07 00:43:15;;;;;;;6.33;4.67;;;;;;;;;;4399902;29;22784;-71
2022/05/07 00:45:26;;;;;;;6.88;4.53;;;;;;;;;;4402042;29;21139;-71
2022/05/07 00:47:38;;;;;;;7.40;5.13;;;;;;;;;;4416270;28;20066;-71
2022/05/07 00:49:51;;;;;;;7.13;5.15;;;;;;;;;;4403730;29;20044;-71
2022/05/07 00:52:02;;;;;;;6.78;4.88;;;;;;;;;;4415302;28;20066;-71
2022/05/07 00:54:13;;;;;;;8.00;5.50;;;;;;;;;;4401856;29;20037;-72
2022/05/07 00:56:24;;;;;;;7.60;4.70;;;;;;;;;;4391943;29;20037;-71
2022/05/07 00:58:35;;;;;;;7.63;5.03;;;;;;;;;;4400421;29;20095;-71
2022/05/07 01:00:45;;;;;;;7.27;4.80;;;;;;;;;;4399145;29;20680;-72
2022/05/07 01:02:56;;;;;;;7.93;5.20;;;;;;;;;;4401220;29;20595;-71
2022/05/07 01:05:08;;;;;;;7.00;4.90;;;;;;;;;;4401507;28;20044;-71
2022/05/07 01:07:18;;;;;;;;;;;;;;;;;;4387212;29;20242;-71
2022/05/07 01:09:30;;;;;;;8.00;5.55;;;;;;;;;;4416328;28;19916;-72
2022/05/07 01:11:41;;;;;;;7.45;5.30;;;;;;;;;;4401399;29;20100;-71
2022/05/07 01:13:52;;;;;;;8.60;5.87;;;;;;;;;;4401577;29;20112;-72
2022/05/07 01:16:04;;;;;;;7.00;5.20;;;;;;;;;;4388771;29;20622;-72
2022/05/07 01:18:34;;;;;;;7.82;5.20;;;;;;;;;;4400313;28;20040;-71
2022/05/07 01:20:45;;;;;;;7.33;5.13;;;;;;;;;;4400107;29;21002;-71
2022/05/07 01:22:58;;;;;;;9.50;5.90;;;;;;;;;;4387465;29;20493;-71
2022/05/07 01:25:11;;;;;;;8.13;5.32;;;;;;;;;;4399392;29;20032;-72
2022/05/07 01:27:22;;;;;;;7.00;4.93;;;;;;;;;;4415588;28;20513;-73
2022/05/07 01:29:33;;;;;;;7.80;5.50;;;;;;;;;;4407207;29;20742;-71
2022/05/07 01:31:43;;;;;;;8.17;5.60;;;;;;;;;;4400813;29;20136;-71
2022/05/07 01:33:54;;;;;;;7.13;5.23;;;;;;;;;;4400976;29;20099;-71
2022/05/07 01:36:11;;;;;;;;;;;;;;;;;;4409536;28;20040;-72
2022/05/07 01:38:23;;;;;;;7.28;5.25;;;;;;;;;;4385457;29;19915;-71
2022/05/07 01:40:34;;;;;;;7.53;5.63;;;;;;;;;;4399816;29;20100;-72
2022/05/07 01:42:44;;;;;;;7.37;5.43;;;;;;;;;;4404260;28;20581;-71
2022/05/07 01:44:56;;;;;;;7.43;5.60;;;;;;;;;;4399451;29;20041;-71
2022/05/07 01:49:36;;;;;;;7.00;4.50;;;;;;;;;;4401163;29;20094;-71
2022/05/07 01:51:48;;;;;;;7.07;5.18;;;;;;;;;;4398347;29;21724;-71
2022/05/07 01:53:58;;;;;;;6.90;4.70;;;;;;;;;;4400547;29;20044;-71
2022/05/07 01:56:09;;;;;;;9.00;4.80;;;;;;;;;;4403936;28;20051;-71
2022/05/07 01:58:26;;;;;;;8.50;5.35;;;;;;;;;;4402128;29;20085;-71
2022/05/07 02:00:40;;;;;;;7.25;4.88;;;;;;;;;;4404046;29;20039;-71
2022/05/07 02:02:51;;;;;;;6.00;4.30;;;;;;;;;;4396191;29;20044;-71
2022/05/07 02:05:06;;;;;;;7.93;5.22;;;;;;;;;;4418778;28;20039;-71
2022/05/07 02:07:16;;;;;;;6.63;4.77;;;;;;;;;;4402306;28;20262;-72
2022/05/07 02:09:27;;;;;;;7.10;5.40;;;;;;;;;;4402159;29;20104;-71
2022/05/07 02:11:37;;;;;;;6.83;4.93;;;;;;;;;;4401725;29;20044;-71
2022/05/07 02:13:49;;;;;;;8.10;5.05;;;;;;;;;;4390043;29;20063;-71
2022/05/07 02:16:00;;;;;;;6.63;4.77;;;;;;;;;;4403896;29;20050;-71
2022/05/07 02:18:10;;;;;;;6.77;4.73;;;;;;;;;;4390714;29;20458;-71
2022/05/07 02:20:21;;;;;;;7.50;5.00;;;;;;;;;;4401971;29;20047;-71
2022/05/07 02:22:32;;;;;;;6.03;4.53;;;;;;;;;;4404765;28;20052;-71
2022/05/07 02:24:42;;;;;;;6.63;4.60;;;;;;;;;;4418154;28;20123;-71
2022/05/07 02:26:53;;;;;;;7.37;5.00;;;;;;;;;;4407091;28;20020;-70
2022/05/07 02:29:04;;;;;;;7.70;4.63;;;;;;;;;;4404347;28;20155;-71
2022/05/07 02:31:14;;;;;;;5.75;4.32;;;;;;;;;;4401863;29;20196;-71
2022/05/07 02:33:27;;;;;;;7.05;4.60;;;;;;;;;;4403011;29;20036;-71
2022/05/07 02:35:37;;;;;;;6.60;4.20;;;;;;;;;;4389658;29;20041;-71
2022/05/07 02:37:48;;;;;;;5.83;4.40;;;;;;;;;;4401807;29;20726;-71
2022/05/07 02:39:58;;;;;;;6.60;4.53;;;;;;;;;;4402094;29;20127;-71
2022/05/07 02:44:40;;;;;;;5.65;3.75;;;;;;;;;;4402069;29;20975;-71
2022/05/07 02:47:02;;;;;;;6.95;4.50;;;;;;;;;;4402772;29;20709;-71
2022/05/07 02:49:12;;;;;;;6.90;4.50;;;;;;;;;;4417534;28;20040;-71
2022/05/07 02:51:23;;;;;;;6.33;4.50;;;;;;;;;;4402964;28;20063;-71
2022/05/07 02:53:33;;;;;;;5.97;4.20;;;;;;;;;;4406114;28;20076;-72
2022/05/07 02:55:44;;;;;;;5.73;4.30;;;;;;;;;;4408389;29;20028;-71
2022/05/07 02:57:54;;;;;;;6.33;4.43;;;;;;;;;;4404097;29;20068;-71
2022/05/07 03:00:07;;;;;;;5.50;4.00;;;;;;;;;;4401344;28;20036;-71
2022/05/07 03:02:20;;;;;;;6.97;4.82;;;;;;;;;;4410458;29;20025;-70
2022/05/07 03:04:31;;;;;;;6.90;5.10;;;;;;;;;;4408439;28;20667;-71
2022/05/07 03:06:41;;;;;;;6.43;4.73;;;;;;;;;;4402394;29;20144;-71
2022/05/07 03:08:52;;;;;;;7.20;4.80;;;;;;;;;;4401640;29;20036;-70
2022/05/07 03:11:03;;;;;;;6.97;4.78;;;;;;;;;;4404300;29;20044;-71
2022/05/07 03:13:15;;;;;;;6.15;4.55;;;;;;;;;;4416401;28;20035;-71
2022/05/07 03:15:25;;;;;;;7.60;4.90;;;;;;;;;;4402014;29;20831;-70
2022/05/07 03:17:36;;;;;;;6.97;4.83;;;;;;;;;;4402340;29;20131;-72
2022/05/07 03:19:47;;;;;;;6.72;4.68;;;;;;;;;;4400363;29;20037;-71
2022/05/07 03:21:58;;;;;;;6.43;4.53;;;;;;;;;;4406818;29;20032;-70
2022/05/07 03:24:11;;;;;;;6.63;4.47;;;;;;;;;;4401524;29;20048;-71
2022/05/07 03:26:23;;;;;;;6.53;4.28;;;;;;;;;;4417842;28;20043;-71
2022/05/07 03:28:33;;;;;;;5.63;4.30;;;;;;;;;;4401011;29;20063;-71
2022/05/07 03:30:44;;;;;;;7.03;4.70;;;;;;;;;;4402326;29;20115;-71
2022/05/07 03:32:54;;;;;;;6.77;4.60;;;;;;;;;;4399792;29;20041;-71
2022/05/07 03:35:05;;;;;;;6.93;4.40;;;;;;;;;;4403451;29;20044;-71
2022/05/07 03:37:15;;;;;;;5.70;4.10;;;;;;;;;;4401462;29;20056;-70
2022/05/07 03:39:30;;;;;;;7.28;4.82;;;;;;;;;;4408021;29;20040;-71
2022/05/07 03:41:41;;;;;;;6.60;4.53;;;;;;;;;;4388380;29;21426;-71
2022/05/07 03:43:53;;;;;;;5.95;4.13;;;;;;;;;;4410164;29;20040;-71
2022/05/07 03:46:05;;;;;;;7.45;4.72;;;;;;;;;;4392782;29;20047;-71
2022/05/07 03:48:16;;;;;;;6.32;4.57;;;;;;;;;;4404184;29;20042;-71
2022/05/07 03:50:31;;;;;;;6.47;4.18;;;;;;;;;;4402849;29;20067;-71
2022/05/07 03:55:13;;;;;;;6.97;4.68;;;;;;;;;;4402347;29;20032;-71
2022/05/07 03:57:24;;;;;;;6.70;4.40;;;;;;;;;;4400031;29;20119;-71
2022/05/07 03:59:35;;;;;;;6.27;4.20;;;;;;;;;;4402572;29;20462;-71
2022/05/07 04:01:46;;;;;;;6.78;4.65;;;;;;;;;;4404604;29;20123;-71
2022/05/07 04:03:56;;;;;;;7.30;4.23;;;;;;;;;;4404507;28;20155;-70
2022/05/07 04:06:07;;;;;;;5.97;4.10;;;;;;;;;;4415772;28;20518;-71
2022/05/07 04:08:19;;;;;;;6.43;4.25;;;;;;;;;;4409217;29;20096;-71
2022/05/07 04:10:30;;;;;;;;;;;;;;;;;;4400827;29;20143;-71
2022/05/07 04:12:49;;;;;;;6.28;4.40;;;;;;;;;;4398830;28;19919;-71
2022/05/07 04:15:02;;;;;;;6.68;4.43;;;;;;;;;;4393542;29;20029;-71
2022/05/07 04:17:14;;;;;;;6.47;4.40;;;;;;;;;;4399464;29;20132;-71
2022/05/07 04:19:25;;;;;;;5.87;4.40;;;;;;;;;;4392759;29;20107;-71
2022/05/07 04:21:40;;;;;;;6.28;4.38;;;;;;;;;;4385437;29;20040;-71
2022/05/07 04:23:57;;;;;;;5.18;3.92;;;;;;;;;;4398162;29;20143;-70
2022/05/07 04:26:10;;;;;;;5.85;3.90;;;;;;;;;;4404687;28;21446;-71
2022/05/07 04:28:25;;;;;;;5.95;4.30;;;;;;;;;;4398486;29;20040;-71
2022/05/07 04:30:38;;;;;;;5.32;4.07;;;;;;;;;;4399150;29;20587;-71
2022/05/07 04:32:49;;;;;;;6.50;4.30;;;;;;;;;;4384515;29;20033;-71
2022/05/07 04:34:59;;;;;;;5.03;4.00;;;;;;;;;;4402013;29;20037;-70
2022/05/07 04:37:13;;;;;;;6.90;4.32;;;;;;;;;;4403211;29;20533;-71
2022/05/07 04:39:23;;;;;;;5.97;4.17;;;;;;;;;;4386681;29;20041;-71
2022/05/07 04:41:41;;;;;;;6.65;4.60;;;;;;;;;;4398950;29;20936;-71
2022/05/07 04:43:52;;;;;;;6.70;4.77;;;;;;;;;;4399453;29;20097;-71
2022/05/07 04:46:03;;;;;;;5.30;3.97;;;;;;;;;;4406551;29;20119;-71
2022/05/07 04:48:16;;;;;;;7.30;4.43;;;;;;;;;;4399892;29;20247;-71
2022/05/07 04:50:26;;;;;;;5.33;3.90;;;;;;;;;;4397270;29;20040;-71
2022/05/07 04:52:53;;;;;;;6.40;4.03;;;;;;;;;;4407615;29;20040;-71
2022/05/07 04:55:04;;;;;;;5.63;4.40;;;;;;;;;;4398715;29;20478;-71
2022/05/07 04:57:15;;;;;;;6.22;4.38;;;;;;;;;;4400835;29;20040;-71
2022/05/07 04:59:33;;;;;;;5.78;4.30;;;;;;;;;;4387431;29;20617;-71
2022/05/07 05:01:52;;;;;;;6.45;4.50;;;;;;;;;;4399508;29;20040;-71
2022/05/07 05:04:05;;;;;;;6.93;4.28;;;;;;;;;;4387685;29;20565;-71
2022/05/07 05:06:18;;;;;;;8.05;4.78;;;;;;;;;;4391790;29;20052;-71
2022/05/07 05:08:50;;;;;;;5.43;4.10;;;;;;;;;;4388826;29;20036;-71
2022/05/07 05:11:01;;;;;;;8.20;4.53;;;;;;;;;;4405672;29;20040;-71
2022/05/07 05:13:15;;;;;;;6.97;4.63;;;;;;;;;;4404642;29;20076;-71
2022/05/07 05:15:31;;;;;;;7.43;4.85;;;;;;;;;;4407103;29;20052;-71
2022/05/07 05:18:00;;;;;;;6.07;4.35;;;;;;;;;;4400412;29;20647;-71
2022/05/07 05:20:10;;;;;;;;;;;;;;;;;;4400090;29;20500;-71
2022/05/07 05:22:25;;;;;;;6.18;4.43;;;;;;;;;;4416504;28;19926;-71
2022/05/07 05:24:36;;;;;;;6.53;4.73;;;;;;;;;;4400419;28;20068;-71
2022/05/07 05:26:46;;;;;;;7.70;5.00;;;;;;;;;;4400348;28;20607;-71
2022/05/07 05:29:02;;;;;;;7.60;5.25;;;;;;;;;;4400066;29;20072;-71
2022/05/07 05:31:12;;;;;;;7.40;4.93;;;;;;;;;;4399284;29;20152;-71
2022/05/07 05:33:27;;;;;;;8.63;4.88;;;;;;;;;;4405788;28;20040;-70
2022/05/07 05:35:55;;;;;;;7.22;5.30;;;;;;;;;;4409494;29;20032;-70
2022/05/07 05:38:09;;;;;;;6.45;4.78;;;;;;;;;;4402964;29;20036;-71
2022/05/07 05:40:21;;;;;;;7.40;5.15;;;;;;;;;;4401954;29;20048;-70
2022/05/07 05:42:36;;;;;;;6.78;4.60;;;;;;;;;;4402289;29;20041;-70
2022/05/07 05:44:47;;;;;;;6.93;4.80;;;;;;;;;;4407167;28;20047;-71
2022/05/07 05:47:04;;;;;;;7.22;4.78;;;;;;;;;;4408519;29;20664;-70
2022/05/07 05:49:14;;;;;;;6.25;4.60;;;;;;;;;;4404462;29;20769;-71
2022/05/07 05:51:28;;;;;;;7.82;5.25;;;;;;;;;;4401838;29;20745;-71
2022/05/07 05:53:39;;;;;;;7.32;4.63;;;;;;;;;;4405904;28;20040;-71
2022/05/07 05:55:50;;;;;;;6.22;4.55;;;;;;;;;;4400625;29;20552;-71
2022/05/07 05:58:06;;;;;;;6.75;4.80;;;;;;;;;;4401425;29;20037;-70
2022/05/07 06:00:17;;;;;;;;;;;;;;;;;;4401979;29;20092;-70
2022/05/07 06:02:28;;;;;;;5.80;4.20;;;;;;;;;;4403149;29;20343;-70
2022/05/07 06:04:41;;;;;;;6.88;4.78;;;;;;;;;;4402895;29;20032;-70
2022/05/07 06:06:59;;;;;;;7.28;4.85;;;;;;;;;;4418239;28;20691;-70
2022/05/07 06:09:13;;;;;;;7.18;5.07;;;;;;;;;;4411136;28;20032;-70
2022/05/07 06:11:25;;;;;;;;;;;;;;;;;;4402800;29;20847;-70
2022/05/07 06:13:36;;;;;;;6.63;4.90;;;;;;;;;;4402151;28;20160;-70
2022/05/07 06:15:51;;;;;;;6.50;4.88;;;;;;;;;;4402761;28;20080;-70
2022/05/07 06:18:02;;;;;;;7.47;5.00;;;;;;;;;;4410299;29;20052;-70
2022/05/07 06:20:13;;;;;;;7.07;4.60;;;;;;;;;;4402787;29;20609;-70
2022/05/07 06:22:30;;;;;;;7.78;5.18;;;;;;;;;;4396379;29;20264;-70
2022/05/07 06:29:45;;;;;;;6.95;4.95;;;;;;;;;;4400608;29;20560;-70
2022/05/07 06:31:57;;;;;;;8.30;5.25;;;;;;;;;;4399471;29;20751;-70
2022/05/07 06:34:09;;;;;;;8.20;5.47;;;;;;;;;;4401902;29;20033;-70
2022/05/07 06:36:27;;;;;;;8.80;5.60;;;;;;;;;;4408729;29;20115;-69
2022/05/07 06:38:38;;;;;;;7.27;4.73;;;;;;;;;;4401032;29;20123;-70
2022/05/07 06:40:51;;;;;;;7.82;5.40;;;;;;;;;;4416188;28;20064;-70
2022/05/07 06:43:01;;;;;;;8.02;5.00;;;;;;;;;;4401796;29;20084;-71
2022/05/07 06:45:22;;;;;;;7.57;5.67;;;;;;;;;;4389496;29;20037;-71
2022/05/07 06:47:33;;;;;;;8.53;5.00;;;;;;;;;;4400224;28;20032;-70
2022/05/07 06:49:43;;;;;;;8.20;5.30;;;;;;;;;;4388230;29;20044;-70
2022/05/07 06:51:54;;;;;;;8.60;5.33;;;;;;;;;;4386832;29;20029;-70
2022/05/07 06:54:04;;;;;;;7.33;5.30;;;;;;;;;;4402778;28;20045;-71
2022/05/07 06:56:15;;;;;;;6.47;5.33;;;;;;;;;;4403293;29;20045;-70
2022/05/07 06:58:27;;;;;;;8.23;5.80;;;;;;;;;;4402289;28;20041;-71
2022/05/07 07:00:38;;;;;;;8.20;5.60;;;;;;;;;;4403646;29;21383;-71
2022/05/07 07:02:49;;;;;;;8.40;5.93;;;;;;;;;;4400289;29;33465;-71
2022/05/07 07:05:02;;;;;;;;;;;;;;;;;;4401260;28;20449;-71
2022/05/07 07:07:12;;;;;;;8.07;5.75;;;;;;;;;;4401963;28;19919;-71
2022/05/07 07:09:23;;;;;;;7.47;5.67;;;;;;;;;;4401918;29;20048;-71
2022/05/07 07:11:34;;;;;;;7.40;5.67;;;;;;;;;;4401769;29;22065;-71
2022/05/07 07:13:45;;;;;;;;;;;;;;;;;;4401774;29;20036;-71
2022/05/07 07:15:55;;;;;;;8.38;5.70;;;;;;;;;;4402117;29;19915;-71
2022/05/07 07:18:09;;;;;;;9.00;6.13;;;;;;;;;;4401849;28;20087;-71
2022/05/07 07:20:20;;;;;;;8.57;5.68;;;;;;;;;;4401451;29;20088;-70
2022/05/07 07:22:30;;;;;;;7.43;5.40;;;;;;;;;;4362420;29;1102337;-70
2022/05/07 07:24:41;;;;;;;7.57;5.60;;;;;;;;;;4403438;28;20048;-70
2022/05/07 07:26:51;;;;;;;7.53;5.77;;;;;;;;;;4402113;29;20333;-70
2022/05/07 07:29:02;;;;;;;9.50;6.40;;;;;;;;;;4402355;29;20112;-70
2022/05/07 07:31:13;;;;;;;;;;;;;;;;;;4407387;28;20522;-70
2022/05/07 07:33:24;;;;;;;9.27;5.88;;;;;;;;;;4403171;29;20348;-70
2022/05/07 07:35:34;;;;;;;8.40;6.10;;;;;;;;;;4401514;29;21011;-71
2022/05/07 07:37:45;;;;;;;8.37;5.87;;;;;;;;;;4402901;29;20787;-70
2022/05/07 07:39:57;;;;;;;8.00;5.68;;;;;;;;;;4403473;28;20040;-70
2022/05/07 07:42:07;;;;;;;;;;;;;;;;;;4402836;29;20036;-70
2022/05/07 07:44:18;;;;;;;8.98;6.15;;;;;;;;;;4400444;29;19926;-70
2022/05/07 07:48:58;;;;;;;8.95;6.43;;;;;;;;;;4401622;29;20069;-70
2022/05/07 07:51:08;;;;;;;8.40;6.33;;;;;;;;;;4402472;28;20659;-70
2022/05/07 07:53:24;;;;;;;8.55;6.38;;;;;;;;;;4416479;28;20032;-71
2022/05/07 07:55:38;;;;;;;9.35;6.35;;;;;;;;;;4400695;28;20036;-70
2022/05/07 07:57:53;;;;;;;8.50;6.20;;;;;;;;;;4415244;28;20596;-70
2022/05/07 08:00:04;;;;;;;8.95;6.38;;;;;;;;;;4404134;29;20091;-70
2022/05/07 08:02:23;;;;;;;9.27;6.75;;;;;;;;;;4401949;29;20036;-70
2022/05/07 08:04:33;;;;;;;9.43;6.40;;;;;;;;;;4401751;28;20033;-70
2022/05/07 08:06:44;;;;;;;9.07;6.30;;;;;;;;;;4401891;28;20052;-70
2022/05/07 08:11:46;;;;;;;9.23;6.43;;;;;;;;;;4403641;29;20028;-70
2022/05/07 08:13:56;;;;;;;10.15;6.75;;;;;;;;;;4401620;29;20044;-70
2022/05/07 08:16:10;;;;;;;9.83;7.03;;;;;;;;;;4402823;29;20036;-70
2022/05/07 08:18:21;;;;;;;10.20;6.88;;;;;;;;;;4402652;29;20580;-70
2022/05/07 08:20:31;;;;;;;9.68;6.88;;;;;;;;;;4402747;29;20048;-71
2022/05/07 08:22:42;;;;;;;8.77;6.30;;;;;;;;;;4405640;29;23290;-70
2022/05/07 08:24:52;;;;;;;9.97;6.97;;;;;;;;;;4402384;29;20041;-70
2022/05/07 08:27:03;;;;;;;9.50;6.57;;;;;;;;;;4402822;28;20898;-70
2022/05/07 08:29:14;;;;;;;9.85;6.55;;;;;;;;;;4404288;28;20618;-70
2022/05/07 08:31:27;;;;;;;8.88;6.32;;;;;;;;;;4401527;29;20044;-70
2022/05/07 08:33:41;;;;;;;9.43;6.70;;;;;;;;;;4402104;29;20494;-71
2022/05/07 08:35:51;;;;;;;9.35;6.75;;;;;;;;;;4402912;29;20028;-70
2022/05/07 08:38:02;;;;;;;9.50;6.95;;;;;;;;;;4403498;29;20613;-70
2022/05/07 08:40:17;;;;;;;8.60;6.00;;;;;;;;;;4401032;29;20036;-71
2022/05/07 08:42:29;;;;;;;10.65;7.20;;;;;;;;;;4399636;29;20032;-70
2022/05/07 08:44:39;;;;;;;9.32;6.85;;;;;;;;;;4400899;29;20051;-71
2022/05/07 08:46:50;;;;;;;10.80;7.23;;;;;;;;;;4400227;29;26100;-70
2022/05/07 08:49:00;;;;;;;9.27;6.63;;;;;;;;;;4401005;29;20032;-71
2022/05/07 08:51:13;;;;;;;10.37;7.13;;;;;;;;;;4402997;29;20046;-70
2022/05/07 08:53:25;;;;;;;10.05;6.88;;;;;;;;;;4398616;29;20750;-71
2022/05/07 08:55:36;;;;;;;10.18;7.07;;;;;;;;;;4401139;29;20036;-70
2022/05/07 08:57:49;;;;;;;9.45;6.85;;;;;;;;;;4399933;28;20041;-70
2022/05/07 09:00:00;;;;;;;10.73;6.95;;;;;;;;;;4399933;29;20036;-71
2022/05/07 09:02:10;;;;;;;10.93;7.10;;;;;;;;;;4400577;29;20487;-71
2022/05/07 09:04:20;;;;;;;9.63;6.70;;;;;;;;;;4398898;29;23016;-71
2022/05/07 09:06:31;;;;;;;9.17;6.27;;;;;;;;;;4399627;29;20051;-71
2022/05/07 09:08:41;;;;;;;10.47;7.53;;;;;;;;;;4401789;29;20524;-70
2022/05/07 09:10:53;;;;;;;11.57;7.70;;;;;;;;;;4400609;29;20036;-71
2022/05/07 09:13:16;;;;;;;9.82;7.03;;;;;;;;;;4385326;29;20045;-70
2022/05/07 09:15:27;;;;;;;10.82;7.22;;;;;;;;;;4401652;29;20052;-70
2022/05/07 09:17:37;;;;;;;10.53;7.23;;;;;;;;;;4403025;29;20055;-71
2022/05/07 09:19:48;;;;;;;10.63;7.63;;;;;;;;;;4408115;29;20072;-71
2022/05/07 09:22:05;;;;;;;9.67;7.00;;;;;;;;;;4401301;29;20035;-71
2022/05/07 09:24:17;;;;;;;10.85;7.63;;;;;;;;;;4401983;28;20028;-70
2022/05/07 09:26:32;;;;;;;10.52;6.72;;;;;;;;;;4399749;29;20532;-70
2022/05/07 09:28:43;;;;;;;10.38;6.63;;;;;;;;;;4406901;29;20906;-71
2022/05/07 09:30:55;;;;;;;10.57;6.93;;;;;;;;;;4399292;29;20150;-71
2022/05/07 09:33:06;;;;;;;9.80;6.88;;;;;;;;;;4402510;29;20040;-72
2022/05/07 09:37:48;;;;;;;9.65;7.18;;;;;;;;;;4399612;29;20135;-68
2022/05/07 09:40:03;;;;;;;10.35;7.20;;;;;;;;;;4401285;28;20043;-72
2022/05/07 09:42:21;;;;;;;10.43;7.50;;;;;;;;;;4400843;29;20044;-66
2022/05/07 09:44:32;;;;;;;9.95;7.00;;;;;;;;;;4410034;29;20639;-73
2022/05/07 09:46:42;;;;;;;9.37;6.40;;;;;;;;;;4402335;29;20116;-73
2022/05/07 09:48:53;;;;;;;11.33;6.47;;;;;;;;;;4403294;29;20538;-74
2022/05/07 09:51:03;;;;;;;10.37;6.73;;;;;;;;;;4401553;29;20259;-75
2022/05/07 09:58:15;;;;;;;9.18;5.60;;;;;;;;;;4403258;29;20206;-72
2022/05/07 10:00:26;;;;;;;8.30;5.40;;;;;;;;;;4401480;29;20028;-71
2022/05/07 10:02:54;;;;;;;10.07;5.75;;;;;;;;;;4402634;29;20047;-73
2022/05/07 10:05:23;;;;;;;8.07;5.53;;;;;;;;;;4411116;29;20036;-74
2022/05/07 10:07:43;;;;;;;8.32;5.50;;;;;;;;;;4417633;28;20044;-75
2022/05/07 10:10:19;;;;;;;8.13;5.20;;;;;;;;;;4401983;29;20041;-74
2022/05/07 10:12:31;;;;;;;9.35;6.53;;;;;;;;;;4394690;29;20607;-74
2022/05/07 10:14:42;;;;;;;9.93;6.32;;;;;;;;;;4400730;29;20051;-74
2022/05/07 10:17:21;;;;;;;9.27;5.55;;;;;;;;;;4402914;29;20052;-74
2022/05/07 10:19:45;;;;;;;8.35;5.72;;;;;;;;;;4403644;29;20048;-75
2022/05/07 10:21:56;;;;;;;8.25;5.47;;;;;;;;;;4407201;29;20048;-75
2022/05/07 10:24:08;;;;;;;8.60;6.20;;;;;;;;;;4407323;29;20040;-75
2022/05/07 10:26:39;;;;;;;10.10;6.35;;;;;;;;;;4405310;29;20041;-75
2022/05/07 10:28:49;;;;;;;8.95;5.85;;;;;;;;;;4405217;29;20152;-75
2022/05/07 10:31:00;;;;;;;8.97;6.17;;;;;;;;;;4405181;29;20386;-75
2022/05/07 10:33:10;;;;;;;8.80;5.90;;;;;;;;;;4403588;29;30735;-75
2022/05/07 10:35:45;;;;;;;9.37;6.20;;;;;;;;;;4394505;29;20092;-75
2022/05/07 10:38:09;;;;;;;9.43;6.10;;;;;;;;;;4404653;29;20052;-75
2022/05/07 10:40:26;;;;;;;9.15;6.13;;;;;;;;;;4405963;29;20452;-75
2022/05/07 10:42:39;;;;;;;8.60;6.32;;;;;;;;;;4405739;29;20037;-75
2022/05/07 10:44:50;;;;;;;10.70;7.38;;;;;;;;;;4405915;29;20862;-75
2022/05/07 10:47:11;;;;;;;10.00;7.30;;;;;;;;;;4404526;28;20127;-74
2022/05/07 10:49:21;;;;;;;11.15;7.45;;;;;;;;;;4413757;29;20494;-74
2022/05/07 10:51:50;;;;;;;10.20;6.97;;;;;;;;;;4406414;28;20043;-73
2022/05/07 10:54:03;;;;;;;9.90;6.90;;;;;;;;;;4406703;28;20044;-74
2022/05/07 10:56:15;;;;;;;11.32;7.43;;;;;;;;;;4404607;29;20040;-73
2022/05/07 10:58:29;;;;;;;9.98;7.28;;;;;;;;;;4408670;28;20084;-73
2022/05/07 11:00:40;;;;;;;10.65;7.20;;;;;;;;;;4391199;29;20067;-73
2022/05/07 11:02:58;;;;;;;10.20;7.37;;;;;;;;;;4405369;29;20509;-72
2022/05/07 11:05:09;;;;;;;10.93;7.07;;;;;;;;;;4420015;28;20781;-74
2022/05/07 11:07:20;;;;;;;10.30;7.10;;;;;;;;;;4405698;28;20033;-74
2022/05/07 11:09:31;;;;;;;8.80;6.30;;;;;;;;;;4405644;29;20044;-73
2022/05/07 11:11:46;;;;;;;8.83;6.30;;;;;;;;;;4404247;29;20047;-73
2022/05/07 11:13:57;;;;;;;8.77;6.25;;;;;;;;;;4387450;29;20289;-73
2022/05/07 11:16:08;;;;;;;9.37;6.90;;;;;;;;;;4405230;28;20552;-73
2022/05/07 11:18:18;;;;;;;9.57;6.90;;;;;;;;;;4407070;29;20151;-74
2022/05/07 11:20:31;;;;;;;9.73;6.93;;;;;;;;;;4405902;29;26509;-73
2022/05/07 11:22:42;;;;;;;9.68;6.75;;;;;;;;;;4406182;29;20040;-73
2022/05/07 11:24:56;;;;;;;9.27;6.30;;;;;;;;;;4403646;29;20124;-73
2022/05/07 11:27:10;;;;;;;9.07;6.30;;;;;;;;;;4404843;28;20039;-73
2022/05/07 11:29:21;;;;;;;10.55;7.50;;;;;;;;;;4403375;29;20040;-73
2022/05/07 11:31:33;;;;;;;10.73;7.65;;;;;;;;;;4404332;28;20037;-73
2022/05/07 11:33:45;;;;;;;10.10;7.20;;;;;;;;;;4405904;29;20107;-73
2022/05/07 11:36:06;;;;;;;9.50;6.60;;;;;;;;;;4405594;29;20596;-74
2022/05/07 11:38:16;;;;;;;10.13;7.28;;;;;;;;;;4404893;29;20119;-73
2022/05/07 11:40:28;;;;;;;10.60;7.23;;;;;;;;;;4404496;29;20028;-72
2022/05/07 11:42:43;;;;;;;9.48;6.68;;;;;;;;;;4404638;29;20038;-72
2022/05/07 11:47:23;;;;;;;10.45;7.28;;;;;;;;;;4404152;29;20040;-73
2022/05/07 11:49:34;;;;;;;9.33;6.50;;;;;;;;;;4395199;29;20028;-73
2022/05/07 11:51:44;;;;;;;10.85;8.05;;;;;;;;;;4403179;28;20128;-73
2022/05/07 11:53:58;;;;;;;11.07;7.60;;;;;;;;;;4403903;29;20048;-72
2022/05/07 11:56:09;;;;;;;10.57;6.80;;;;;;;;;;4403454;28;20084;-72
2022/05/07 11:58:22;;;;;;;10.88;7.63;;;;;;;;;;4404281;29;20045;-73
2022/05/07 12:00:32;;;;;;;10.07;7.47;;;;;;;;;;4396029;29;20042;-73
2022/05/07 12:02:50;;;;;;;9.53;6.43;;;;;;;;;;4403894;29;20044;-73
2022/05/07 12:05:00;;;;;;;10.25;7.55;;;;;;;;;;4394359;29;20047;-74
2022/05/07 12:07:14;;;;;;;10.30;7.45;;;;;;;;;;4402535;29;20037;-73
2022/05/07 12:09:27;;;;;;;9.80;7.30;;;;;;;;;;4402693;29;20044;-72
2022/05/07 12:11:38;;;;;;;10.38;7.78;;;;;;;;;;4411681;29;21113;-72
2022/05/07 12:13:48;;;;;;;10.47;7.87;;;;;;;;;;4404101;29;20123;-72
2022/05/07 12:18:29;;;;;;;9.60;7.25;;;;;;;;;;4401049;29;20231;-72
2022/05/07 12:20:40;;;;;;;;;;;;;;;;;;4390097;29;20624;-72
2022/05/07 12:30:18;;;;;;;11.93;8.07;;;;;;;;;;4403698;29;20041;-74
2022/05/07 12:32:29;;;;;;;13.43;9.07;;;;;;;;;;4396281;29;20044;-73
2022/05/07 12:34:41;;;;;;;11.32;8.57;;;;;;;;;;4405178;29;20620;-73
2022/05/07 12:36:51;;;;;;;11.57;9.07;;;;;;;;;;4402378;29;33193;-73
2022/05/07 12:39:02;;;;;;;12.20;8.60;;;;;;;;;;4402261;29;28304;-72
2022/05/07 12:41:12;;;;;;;12.43;9.63;;;;;;;;;;4407488;29;20131;-73
2022/05/07 12:43:23;;;;;;;12.23;7.00;;;;;;;;;;4403282;29;20068;-73
2022/05/07 12:45:35;;;;;;;12.90;6.67;;;;;;;;;;4403211;29;20067;-73
2022/05/07 12:47:45;;;;;;;12.10;6.20;;;;;;;;;;4403435;29;20843;-73
2022/05/07 12:49:55;;;;;;;10.77;6.80;;;;;;;;;;4402801;29;20052;-73
2022/05/07 12:52:13;;;;;;;11.87;6.80;;;;;;;;;;4403748;28;20031;-73
2022/05/07 12:54:24;;;;;;;10.75;6.43;;;;;;;;;;4396524;29;20169;-73
2022/05/07 12:56:34;;;;;;;13.07;7.13;;;;;;;;;;4404433;29;20053;-73
2022/05/07 12:58:46;;;;;;;11.73;6.40;;;;;;;;;;4402675;28;23184;-74
2022/05/07 13:00:56;;;;;;;;;;;;;;;;;;4402520;29;20043;-73
2022/05/07 13:03:08;;;;;;;12.05;7.10;;;;;;;;;;4403750;29;19990;-73
2022/05/07 13:05:19;;;;;;;11.98;7.05;;;;;;;;;;4404340;29;20034;-74
2022/05/07 13:07:29;;;;;;;13.85;7.32;;;;;;;;;;4402196;29;20087;-73
2022/05/07 13:09:39;;;;;;;11.70;9.80;;;;;;;;;;4402644;29;20040;-74
2022/05/07 13:11:50;;;;;;;9.70;6.17;;;;;;;;;;4403700;29;20039;-73
2022/05/07 13:14:00;;;;;;;8.43;5.90;;;;;;;;;;4401110;29;20457;-73
2022/05/07 13:16:11;;;;;;;8.47;5.93;;;;;;;;;;4403833;29;20059;-73
2022/05/07 13:18:22;;;;;;;8.13;6.00;;;;;;;;;;4402408;29;20056;-73
2022/05/07 13:20:34;;;;;;;9.10;6.05;;;;;;;;;;4403905;29;20051;-73
2022/05/07 13:22:44;;;;;;;8.93;6.10;;;;;;;;;;4404275;29;20035;-74
2022/05/07 13:24:54;;;;;;;8.50;6.20;;;;;;;;;;4403604;29;20055;-73
2022/05/07 13:27:05;;;;;;;7.20;5.33;;;;;;;;;;4400182;29;20041;-73
2022/05/07 13:29:15;;;;;;;8.33;5.70;;;;;;;;;;4402417;29;20028;-73
2022/05/07 13:31:27;;;;;;;8.80;6.37;;;;;;;;;;4402665;28;20611;-73
2022/05/07 13:33:37;;;;;;;10.25;7.53;;;;;;;;;;4403128;29;20106;-73
2022/05/07 13:35:48;;;;;;;8.70;6.10;;;;;;;;;;4404027;29;20040;-73
2022/05/07 13:37:58;;;;;;;8.50;5.67;;;;;;;;;;4403160;29;20040;-73
2022/05/07 13:40:09;;;;;;;8.80;6.27;;;;;;;;;;4402371;29;20065;-73
2022/05/07 13:42:19;;;;;;;8.57;6.05;;;;;;;;;;4401940;29;20080;-73
2022/05/07 13:44:30;;;;;;;10.33;6.10;;;;;;;;;;4402156;29;20056;-73
2022/05/07 13:46:40;;;;;;;7.00;4.83;;;;;;;;;;4409454;29;20473;-73
2022/05/07 13:48:53;;;;;;;;;;;;;;;;;;4402877;28;20640;-73
2022/05/07 13:51:05;;;;;;;7.15;5.18;;;;;;;;;;4402749;28;20472;-73
2022/05/07 13:53:18;;;;;;;7.38;5.35;;;;;;;;;;4393811;29;20100;-73
2022/05/07 13:55:29;;;;;;;9.57;6.75;;;;;;;;;;4406733;29;20036;-73